createdAt,value
2023-08-26T00:02:46.548Z,2.03
2023-08-26T00:05:33.373Z,2.22
2023-08-26T00:08:19.839Z,2.58
2023-08-26T00:11:05.644Z,1.80
2023-08-26T00:13:51.795Z,2.03
2023-08-26T00:16:37.154Z,1.95
2023-08-26T00:19:22.715Z,2.00
2023-08-26T00:22:09.504Z,1.92
2023-08-26T00:24:54.883Z,2.10
2023-08-26T00:27:40.510Z,2.20
2023-08-26T00:30:26.165Z,2.78
2023-08-26T00:33:11.913Z,3.45
2023-08-26T00:35:59.147Z,3.80
2023-08-26T00:38:44.512Z,3.75
2023-08-26T00:41:31.088Z,3.75
2023-08-26T00:44:16.617Z,3.13
2023-08-26T00:47:02.136Z,3.20
2023-08-26T00:49:49.408Z,3.28
2023-08-26T00:52:37.018Z,2.67
2023-08-26T00:55:30.250Z,2.67
2023-08-26T00:58:16.481Z,2.67
2023-08-26T01:01:04.290Z,2.40
2023-08-26T01:03:53.633Z,2.30
2023-08-26T01:06:40.631Z,2.47
2023-08-26T01:09:26.074Z,2.20
2023-08-26T01:13:01.500Z,1.83
2023-08-26T01:15:51.545Z,2.70
2023-08-26T01:18:41.722Z,2.42
2023-08-26T01:21:35.531Z,2.20
2023-08-26T01:24:21.512Z,3.10
2023-08-26T01:27:07.190Z,2.55
2023-08-26T01:29:52.774Z,2.28
2023-08-26T01:33:08.280Z,3.50
2023-08-26T01:36:00.431Z,2.40
2023-08-26T01:38:46.839Z,2.53
2023-08-26T01:41:36.233Z,2.75
2023-08-26T01:44:22.467Z,2.45
2023-08-26T01:47:08.532Z,2.70
2023-08-26T01:49:54.174Z,2.70
2023-08-26T01:52:41.917Z,2.92
2023-08-26T01:55:30.034Z,3.15
2023-08-26T01:58:19.754Z,3.33
2023-08-26T02:01:07.576Z,2.95
2023-08-26T02:03:55.677Z,2.53
2023-08-26T02:06:42.081Z,3.05
2023-08-26T02:09:27.872Z,3.28
2023-08-26T02:12:13.396Z,3.53
2023-08-26T02:14:59.265Z,3.45
2023-08-26T02:17:44.860Z,3.90
2023-08-26T02:20:30.627Z,3.65
2023-08-26T02:23:16.656Z,3.75
2023-08-26T02:26:01.913Z,3.28
2023-08-26T02:28:47.589Z,3.25
2023-08-26T02:31:33.310Z,3.53
2023-08-26T02:34:18.569Z,3.85
2023-08-26T02:37:04.410Z,3.45
2023-08-26T02:39:49.893Z,3.30
2023-08-26T02:42:38.061Z,3.63
2023-08-26T02:45:23.695Z,3.38
2023-08-26T02:48:10.958Z,2.88
2023-08-26T02:51:02.671Z,3.10
2023-08-26T02:53:48.410Z,3.75
2023-08-26T02:56:34.058Z,3.53
2023-08-26T02:59:22.257Z,4.20
2023-08-26T03:02:09.282Z,3.17
2023-08-26T03:04:55.081Z,3.30
2023-08-26T03:07:40.652Z,3.15
2023-08-26T03:10:26.556Z,3.22
2023-08-26T03:13:12.128Z,3.25
2023-08-26T03:16:06.293Z,3.67
2023-08-26T03:18:54.138Z,3.67
2023-08-26T03:21:40.842Z,3.40
2023-08-26T03:24:28.024Z,3.60
2023-08-26T03:27:15.139Z,3.35
2023-08-26T03:30:01.169Z,3.42
2023-08-26T03:32:48.785Z,3.45
2023-08-26T03:35:39.950Z,3.40
2023-08-26T03:38:25.532Z,2.60
2023-08-26T03:41:11.162Z,3.45
2023-08-26T03:43:57.706Z,3.95
2023-08-26T03:46:43.353Z,3.03
2023-08-26T03:49:29.418Z,3.58
2023-08-26T03:52:14.809Z,3.28
2023-08-26T03:55:00.266Z,4.22
2023-08-26T03:57:45.712Z,3.85
2023-08-26T04:00:31.525Z,3.25
2023-08-26T04:03:17.071Z,3.72
2023-08-26T04:06:04.228Z,3.80
2023-08-26T04:08:50.034Z,3.47
2023-08-26T04:11:35.517Z,3.30
2023-08-26T04:14:21.132Z,3.92
2023-08-26T04:17:07.061Z,4.32
2023-08-26T04:19:52.718Z,4.07
2023-08-26T04:22:38.912Z,4.45
2023-08-26T04:25:28.958Z,3.50
2023-08-26T04:28:15.646Z,3.38
2023-08-26T04:31:02.539Z,3.65
2023-08-26T04:33:48.251Z,3.80
2023-08-26T04:36:33.863Z,3.55
2023-08-26T04:39:21.343Z,4.10
2023-08-26T04:42:08.379Z,4.10
2023-08-26T04:44:56.566Z,4.15
2023-08-26T04:47:43.021Z,3.50
2023-08-26T04:50:30.216Z,3.63
2023-08-26T04:53:15.815Z,4.10
2023-08-26T04:56:01.934Z,3.83
2023-08-26T04:58:47.456Z,3.70
2023-08-26T05:01:33.632Z,4.18
2023-08-26T05:04:22.292Z,3.75
2023-08-26T05:07:07.765Z,3.92
2023-08-26T05:09:53.980Z,3.53
2023-08-26T05:12:39.380Z,3.80
2023-08-26T05:15:24.816Z,3.80
2023-08-26T05:18:10.291Z,3.75
2023-08-26T05:20:56.128Z,3.90
2023-08-26T05:23:41.305Z,4.07
2023-08-26T05:26:26.800Z,3.78
2023-08-26T05:29:12.470Z,3.53
2023-08-26T05:31:57.943Z,3.88
2023-08-26T05:34:43.586Z,3.22
2023-08-26T05:37:31.847Z,3.25
2023-08-26T05:40:17.654Z,3.53
2023-08-26T05:43:03.567Z,3.10
2023-08-26T05:45:48.789Z,3.03
2023-08-26T05:48:34.460Z,3.38
2023-08-26T05:51:19.810Z,3.22
2023-08-26T05:54:06.916Z,3.33
2023-08-26T05:56:52.596Z,3.60
2023-08-26T05:59:38.905Z,3.60
2023-08-26T06:02:26.458Z,3.50
2023-08-26T06:05:17.232Z,3.17
2023-08-26T06:08:05.505Z,2.88
2023-08-26T06:10:56.376Z,3.33
2023-08-26T06:14:02.157Z,3.25
2023-08-26T06:16:50.850Z,3.58
2023-08-26T06:19:36.439Z,3.13
2023-08-26T06:22:21.628Z,3.65
2023-08-26T06:25:10.214Z,3.50
2023-08-26T06:27:56.223Z,3.50
2023-08-26T06:30:42.178Z,3.00
2023-08-26T06:33:31.425Z,2.92
2023-08-26T06:36:18.387Z,3.35
2023-08-26T06:39:05.405Z,3.70
2023-08-26T06:41:50.937Z,3.28
2023-08-26T06:44:36.608Z,3.20
2023-08-26T06:47:23.898Z,3.72
2023-08-26T06:50:11.860Z,3.22
2023-08-26T06:52:59.140Z,3.45
2023-08-26T06:55:44.590Z,3.08
2023-08-26T06:58:35.283Z,3.40
2023-08-26T07:01:21.257Z,2.83
2023-08-26T07:04:10.261Z,3.63
2023-08-26T07:06:55.674Z,2.42
2023-08-26T07:09:41.261Z,2.75
2023-08-26T07:12:47.079Z,2.00
2023-08-26T07:15:32.432Z,2.15
2023-08-26T07:18:20.183Z,2.30
2023-08-26T07:21:06.089Z,2.33
2023-08-26T07:23:51.752Z,2.10
2023-08-26T07:26:37.878Z,1.65
2023-08-26T07:29:23.305Z,1.88
2023-08-26T07:32:09.278Z,2.22
2023-08-26T07:34:54.686Z,2.08
2023-08-26T07:37:40.130Z,2.10
2023-08-26T07:40:25.631Z,2.00
2023-08-26T07:43:12.362Z,1.90
2023-08-26T07:48:46.682Z,1.90
2023-08-26T07:51:32.670Z,1.48
2023-08-26T07:54:18.587Z,1.63
2023-08-26T07:57:04.266Z,1.63
2023-08-26T07:59:49.697Z,1.58
2023-08-26T08:02:35.633Z,2.10
2023-08-26T08:05:21.244Z,1.77
2023-08-26T08:08:06.930Z,1.50
2023-08-26T08:10:52.614Z,1.90
2023-08-26T08:13:41.353Z,1.48
2023-08-26T08:16:28.748Z,1.83
2023-08-26T08:19:14.477Z,1.77
2023-08-26T08:21:59.913Z,2.00
2023-08-26T08:24:45.487Z,1.52
2023-08-26T08:27:34.105Z,1.90
2023-08-26T08:30:19.401Z,1.83
2023-08-26T08:33:05.745Z,2.20
2023-08-26T08:35:51.848Z,2.03
2023-08-26T08:38:37.524Z,1.38
2023-08-26T08:41:22.906Z,1.70
2023-08-26T08:44:15.634Z,1.48
2023-08-26T08:47:05.520Z,1.63
2023-08-26T08:49:52.381Z,1.23
2023-08-26T08:52:37.850Z,1.23
2023-08-26T08:55:24.348Z,1.13
2023-08-26T08:58:12.195Z,1.48
2023-08-26T09:00:59.753Z,1.60
2023-08-26T09:03:47.065Z,1.50
2023-08-26T09:06:32.649Z,1.63
2023-08-26T09:09:31.692Z,1.50
2023-08-26T09:12:18.948Z,1.30
2023-08-26T09:15:08.677Z,1.40
2023-08-26T09:18:01.675Z,1.35
2023-08-26T09:20:48.091Z,1.70
2023-08-26T09:23:44.767Z,1.35
2023-08-26T09:27:03.916Z,1.83
2023-08-26T09:29:39.806Z,1.60
2023-08-26T09:32:40.715Z,1.33
2023-08-26T09:38:14.776Z,1.60
2023-08-26T09:41:01.884Z,1.70
2023-08-26T09:43:48.622Z,1.30
2023-08-26T09:46:39.644Z,1.50
2023-08-26T09:49:25.259Z,1.83
2023-08-26T09:52:13.888Z,2.03
2023-08-26T09:55:02.746Z,1.15
2023-08-26T09:57:48.364Z,1.23
2023-08-26T10:00:34.409Z,1.25
2023-08-26T10:03:24.414Z,1.30
2023-08-26T10:06:13.369Z,1.63
2023-08-26T10:09:06.733Z,1.38
2023-08-26T10:11:55.918Z,1.05
2023-08-26T10:14:43.080Z,1.70
2023-08-26T10:17:33.282Z,1.40
2023-08-26T10:20:22.612Z,1.35
2023-08-26T10:23:11.422Z,1.30
2023-08-26T10:25:57.608Z,1.40
2023-08-26T10:28:44.079Z,1.95
2023-08-26T10:31:35.011Z,1.50
2023-08-26T10:34:21.182Z,1.40
2023-08-26T10:37:11.492Z,1.50
2023-08-26T10:39:57.567Z,1.15
2023-08-26T10:43:06.280Z,1.38
2023-08-26T10:45:58.270Z,1.20
2023-08-26T10:48:56.280Z,1.30
2023-08-26T10:51:45.663Z,1.60
2023-08-26T10:54:32.040Z,1.77
2023-08-26T10:57:17.641Z,2.00
2023-08-26T11:00:09.879Z,1.83
2023-08-26T11:02:58.976Z,1.27
2023-08-26T11:05:49.068Z,1.17
2023-08-26T11:08:39.260Z,0.88
2023-08-26T11:11:26.150Z,1.23
2023-08-26T11:14:11.414Z,1.10
2023-08-26T11:16:57.021Z,1.30
2023-08-26T11:19:42.883Z,1.00
2023-08-26T11:22:28.280Z,0.98
2023-08-26T11:25:18.056Z,0.98
2023-08-26T11:28:09.457Z,0.90
2023-08-26T11:30:55.997Z,1.00
2023-08-26T11:33:41.759Z,1.08
2023-08-26T11:36:28.281Z,0.95
2023-08-26T11:39:20.054Z,0.95
2023-08-26T11:42:19.299Z,0.73
2023-08-26T11:45:12.870Z,0.90
2023-08-26T11:47:59.590Z,1.10
2023-08-26T11:50:47.408Z,0.77
2023-08-26T11:53:35.448Z,1.10
2023-08-26T11:56:20.821Z,1.20
2023-08-26T11:59:19.598Z,1.23
2023-08-26T12:02:25.882Z,0.90
2023-08-26T12:05:12.880Z,1.20
2023-08-26T12:07:59.316Z,0.75
2023-08-26T12:10:53.350Z,1.17
2023-08-26T12:13:40.140Z,0.70
2023-08-26T12:16:34.205Z,0.70
2023-08-26T12:19:20.444Z,0.80
2023-08-26T12:22:08.576Z,0.82
2023-08-26T12:24:57.367Z,1.00
2023-08-26T12:27:43.259Z,0.82
2023-08-26T12:30:29.633Z,0.77
2023-08-26T12:33:26.509Z,0.80
2023-08-26T12:36:14.074Z,0.82
2023-08-26T12:39:02.627Z,0.60
2023-08-26T12:41:50.104Z,0.60
2023-08-26T12:44:37.848Z,0.60
2023-08-26T12:47:24.813Z,0.60
2023-08-26T12:50:12.881Z,0.60
2023-08-26T12:52:59.364Z,0.60
2023-08-26T12:55:45.294Z,0.52
2023-08-26T12:58:36.599Z,0.57
2023-08-26T13:01:21.868Z,0.65
2023-08-26T13:04:07.868Z,0.47
2023-08-26T13:06:53.496Z,0.70
2023-08-26T13:09:41.401Z,0.90
2023-08-26T13:12:29.469Z,0.82
2023-08-26T13:15:14.998Z,0.52
2023-08-26T13:18:04.113Z,0.50
2023-08-26T13:20:49.974Z,1.05
2023-08-26T13:23:35.724Z,0.70
2023-08-26T13:26:22.685Z,0.68
2023-08-26T13:29:08.477Z,0.70
2023-08-26T13:31:53.893Z,0.80
2023-08-26T13:34:39.666Z,0.80
2023-08-26T13:37:26.658Z,0.70
2023-08-26T13:40:12.565Z,0.65
2023-08-26T13:43:06.779Z,0.95
2023-08-26T13:45:53.272Z,0.70
2023-08-26T13:48:38.680Z,0.70
2023-08-26T13:51:24.417Z,1.00
2023-08-26T13:54:12.432Z,1.20
2023-08-26T13:56:58.655Z,2.08
2023-08-26T13:59:44.539Z,1.80
2023-08-26T14:02:30.327Z,1.50
2023-08-26T14:05:18.028Z,2.03
2023-08-26T14:08:07.968Z,1.52
2023-08-26T14:10:56.615Z,1.75
2023-08-26T14:13:47.541Z,2.00
2023-08-26T14:16:35.921Z,1.30
2023-08-26T14:19:23.679Z,1.45
2023-08-26T14:22:09.235Z,1.58
2023-08-26T14:24:54.548Z,1.40
2023-08-26T14:27:40.093Z,1.52
2023-08-26T14:30:26.312Z,1.50
2023-08-26T14:33:18.775Z,1.50
2023-08-26T14:36:06.455Z,1.20
2023-08-26T14:38:53.341Z,1.58
2023-08-26T14:41:38.508Z,1.20
2023-08-26T14:44:29.557Z,1.38
2023-08-26T14:47:18.438Z,1.00
2023-08-26T14:50:07.289Z,1.00
2023-08-26T14:52:54.410Z,0.95
2023-08-26T14:55:44.953Z,0.90
2023-08-26T14:58:35.000Z,0.60
2023-08-26T15:01:22.698Z,0.95
2023-08-26T15:04:14.814Z,0.70
2023-08-26T15:07:02.147Z,0.95
2023-08-26T15:09:48.443Z,0.98
2023-08-26T15:12:35.182Z,1.00
2023-08-26T15:15:20.560Z,0.82
2023-08-26T15:18:07.343Z,1.00
2023-08-26T15:20:55.271Z,1.25
2023-08-26T15:23:40.802Z,1.08
2023-08-26T15:26:26.698Z,1.40
2023-08-26T15:29:12.661Z,0.95
2023-08-26T15:32:03.138Z,0.95
2023-08-26T15:34:48.617Z,1.00
2023-08-26T15:37:34.925Z,1.20
2023-08-26T15:40:22.657Z,0.93
2023-08-26T15:43:08.175Z,1.48
2023-08-26T15:45:54.393Z,1.10
2023-08-26T15:48:41.017Z,1.27
2023-08-26T15:51:27.011Z,1.33
2023-08-26T15:54:15.694Z,1.40
2023-08-26T15:57:01.489Z,1.50
2023-08-26T15:59:47.061Z,1.13
2023-08-26T16:02:32.370Z,1.10
2023-08-26T16:05:17.960Z,1.20
2023-08-26T16:08:09.971Z,1.40
2023-08-26T16:10:55.369Z,1.48
2023-08-26T16:13:44.705Z,1.80
2023-08-26T16:16:30.854Z,1.67
2023-08-26T16:19:18.116Z,1.10
2023-08-26T16:22:03.839Z,1.20
2023-08-26T16:24:49.432Z,1.10
2023-08-26T16:27:36.431Z,1.27
2023-08-26T16:30:24.708Z,1.23
2023-08-26T16:33:10.308Z,1.17
2023-08-26T16:35:56.031Z,1.17
2023-08-26T16:38:41.693Z,1.20
2023-08-26T16:41:27.326Z,1.13
2023-08-26T16:44:13.600Z,1.02
2023-08-26T16:46:59.837Z,1.10
2023-08-26T16:49:46.079Z,1.00
2023-08-26T16:52:32.786Z,0.93
2023-08-26T16:55:18.126Z,0.90
2023-08-26T16:58:03.856Z,0.77
2023-08-26T17:00:49.219Z,1.00
2023-08-26T17:03:34.475Z,0.90
2023-08-26T17:06:20.237Z,1.02
2023-08-26T17:09:06.262Z,0.50
2023-08-26T17:11:51.700Z,0.90
2023-08-26T17:14:37.444Z,0.88
2023-08-26T17:17:22.904Z,0.98
2023-08-26T17:20:08.948Z,0.95
2023-08-26T17:22:58.398Z,0.68
2023-08-26T17:25:45.172Z,0.88
2023-08-26T17:28:30.643Z,0.70
2023-08-26T17:31:16.151Z,1.10
2023-08-26T17:34:01.783Z,0.95
2023-08-26T17:36:47.480Z,0.90
2023-08-26T17:39:33.920Z,0.60
2023-08-26T17:42:19.893Z,0.60
2023-08-26T17:45:05.892Z,0.80
2023-08-26T17:47:51.556Z,0.52
2023-08-26T17:50:45.769Z,0.77
2023-08-26T17:53:31.296Z,0.70
2023-08-26T17:56:21.110Z,0.73
2023-08-26T17:59:07.137Z,0.88
2023-08-26T18:01:52.619Z,0.68
2023-08-26T18:04:42.836Z,0.90
2023-08-26T18:07:28.265Z,1.20
2023-08-26T18:10:13.511Z,1.00
2023-08-26T18:13:00.398Z,0.80
2023-08-26T18:15:46.294Z,1.00
2023-08-26T18:18:31.779Z,1.00
2023-08-26T18:21:17.405Z,1.13
2023-08-26T18:24:02.592Z,1.17
2023-08-26T18:26:48.110Z,1.10
2023-08-26T18:29:39.935Z,1.02
2023-08-26T18:32:25.732Z,0.90
2023-08-26T18:35:11.839Z,0.80
2023-08-26T18:38:01.150Z,1.10
2023-08-26T18:41:01.235Z,0.70
2023-08-26T18:43:46.631Z,0.77
2023-08-26T18:46:32.487Z,1.30
2023-08-26T18:49:18.144Z,1.30
2023-08-26T18:52:03.736Z,1.17
2023-08-26T18:54:51.373Z,1.60
2023-08-26T18:57:36.751Z,1.08
2023-08-26T19:00:22.516Z,1.33
2023-08-26T19:03:13.912Z,1.15
2023-08-26T19:05:59.397Z,1.20
2023-08-26T19:08:45.062Z,1.50
2023-08-26T19:11:30.762Z,1.20
2023-08-26T19:14:16.338Z,1.40
2023-08-26T19:17:01.918Z,1.30
2023-08-26T19:19:47.601Z,1.30
2023-08-26T19:22:33.449Z,1.10
2023-08-26T19:25:21.123Z,1.13
2023-08-26T19:28:08.094Z,1.38
2023-08-26T19:30:53.809Z,1.15
2023-08-26T19:33:39.130Z,0.98
2023-08-26T19:36:29.782Z,1.42
2023-08-26T19:39:15.452Z,1.27
2023-08-26T19:42:01.281Z,1.80
2023-08-26T19:44:46.798Z,1.85
2023-08-26T19:47:32.766Z,2.05
2023-08-26T19:50:21.638Z,1.77
2023-08-26T19:53:07.527Z,2.17
2023-08-26T19:55:55.217Z,1.95
2023-08-26T19:58:40.704Z,1.67
2023-08-26T20:01:26.834Z,1.70
2023-08-26T20:04:16.480Z,1.80
2023-08-26T20:07:02.370Z,1.52
2023-08-26T20:09:50.429Z,1.63
2023-08-26T20:12:38.937Z,2.05
2023-08-26T20:15:24.537Z,2.03
2023-08-26T20:18:10.210Z,1.70
2023-08-26T20:21:01.961Z,1.73
2023-08-26T20:23:47.334Z,1.90
2023-08-26T20:26:32.976Z,2.28
2023-08-26T20:29:21.602Z,1.90
2023-08-26T20:32:08.178Z,1.90
2023-08-26T20:34:53.554Z,1.80
2023-08-26T20:37:39.352Z,1.83
2023-08-26T20:40:26.140Z,1.80
2023-08-26T20:43:16.047Z,1.58
2023-08-26T20:46:03.456Z,1.85
2023-08-26T20:48:49.142Z,1.40
2023-08-26T20:51:34.938Z,1.70
2023-08-26T20:54:20.098Z,2.20
2023-08-26T20:57:05.784Z,2.10
2023-08-26T20:59:51.460Z,2.17
2023-08-26T21:02:37.158Z,2.17
2023-08-26T21:05:22.983Z,2.50
2023-08-26T21:08:10.849Z,1.90
2023-08-26T21:11:00.154Z,1.50
2023-08-26T21:13:45.994Z,1.92
2023-08-26T21:16:31.504Z,1.75
2023-08-26T21:19:21.684Z,1.92
2023-08-26T21:22:07.184Z,2.70
2023-08-26T21:24:53.118Z,3.03
2023-08-26T21:27:41.930Z,3.35
2023-08-26T21:30:27.679Z,2.85
2023-08-26T21:33:13.500Z,3.80
2023-08-26T21:36:01.018Z,3.78
2023-08-26T21:38:48.002Z,2.42
2023-08-26T21:41:33.722Z,2.25
2023-08-26T21:44:18.970Z,2.15
2023-08-26T21:47:05.418Z,1.98
2023-08-26T21:49:52.251Z,1.80
2023-08-26T21:52:37.605Z,2.08
2023-08-26T21:55:26.135Z,2.33
2023-08-26T21:58:11.716Z,2.00
2023-08-26T22:01:00.599Z,2.28
2023-08-26T22:03:46.026Z,2.00
2023-08-26T22:06:31.891Z,1.85
2023-08-26T22:09:17.140Z,1.98
2023-08-26T22:12:02.924Z,1.90
2023-08-26T22:14:48.566Z,1.83
2023-08-26T22:17:34.169Z,2.10
2023-08-26T22:20:20.102Z,2.40
2023-08-26T22:23:05.914Z,2.53
2023-08-26T22:25:52.041Z,2.00
2023-08-26T22:28:37.651Z,2.35
2023-08-26T22:31:23.271Z,2.10
2023-08-26T22:34:08.909Z,2.17
2023-08-26T22:36:56.853Z,2.55
2023-08-26T22:39:42.630Z,2.30
2023-08-26T22:42:31.180Z,2.38
2023-08-26T22:45:16.916Z,2.85
2023-08-26T22:48:02.306Z,3.00
2023-08-26T22:50:50.524Z,2.45
2023-08-26T22:53:37.092Z,2.40
2023-08-26T22:56:25.387Z,1.80
2023-08-26T22:59:11.066Z,2.47
2023-08-26T23:01:57.785Z,2.35
2023-08-26T23:04:43.725Z,2.60
2023-08-26T23:07:29.703Z,2.72
2023-08-26T23:10:15.213Z,2.47
2023-08-26T23:16:01.209Z,3.40
2023-08-26T23:18:47.020Z,3.28
2023-08-26T23:21:32.668Z,3.50
2023-08-26T23:24:18.186Z,3.00
2023-08-26T23:27:04.569Z,3.65
2023-08-26T23:29:50.241Z,4.03
2023-08-26T23:32:36.134Z,3.78
2023-08-26T23:35:21.776Z,3.10
2023-08-26T23:38:13.086Z,3.50
2023-08-26T23:41:01.598Z,4.00
2023-08-26T23:43:46.929Z,3.75
2023-08-26T23:46:32.579Z,4.13
2023-08-26T23:49:18.231Z,3.88
2023-08-26T23:52:03.686Z,3.80
2023-08-26T23:54:49.381Z,3.15
2023-08-26T23:57:35.290Z,3.70
